Nice screenshot

Please fill in each section and delete this line as appropriate. Topics without the required information shall now be closed.

1) Background to the photos

2) Detailed Flight Information including servers, time, route

3) Photos



Hello IFC my name is Jinggyli_R and you can call me Jing.Yesterday I flighted with my good friends.
FPL:ZGGG DE20R GG511 GG517 GG519 LMN XEBUL VAVSO 2509N/11504E EGEDA PLT SAGON 2712N/11633E XUVGI SHR ELNEX UGAGO 2937N/11953E MULOV SHZ VEXEX AND DADAT JTN CD18L ZSSS

Departure	Arrival

Airport Code ZGGG ZSSS
Elevation 50 10
Planned Runway 20R 18L
Current Weather 2021/10/02 05:30
ZGGG 020530Z 08004MPS 8000 -SHRA FEW030TCU BKN030 31/25 Q1009 NOSIG
2021/10/02 05:30
ZSSS 020530Z 15004MPS 100V200 CAVOK 32/20 Q1012 NOSIG
SID/STAR LMN1D (SID) (STAR)
Aircraft A350-900
Flight Level 41,000
Plan Distance 738 NM
Flight Time 1:44
Block Fuel 16,018 kgs
V-Speeds (KIAS) V1=N/A VR=N/A V2=N/A
V-Speeds are not available with certain aircraft. When using Simbrief Classic, please change plan fomat to JBU
Climb Profile 250/320/85
Descent Profile 85/300/250
Passenger Count 260
Cargo Weight 0 kgs
Notes
System Remarks

21 Likes

Both of these photos are stunning!

1 Like

Golden hour is the best for some shots! Nice:)

1 Like

Jeeesusssss.
Great pictures.
Alot of code…

1 Like

That second one. 😍😍😍

Beautiful shots!!

1 Like